Time;durP1;ratioP1;P1;durP2;ratioP2;P2;SDS_P1;SDS_P2;PMS_P1;PMS_P2;Temp;Humidity;BMP_temperature;BMP_pressure;BME280_temperature;BME280_humidity;BME280_pressure;Samples;Min_cycle;Max_cycle;Signal;HPM_P1;HPM_P2
2023/04/25 00:01:56;;;;;;;8.57;3.33;;;;;;;;;;4938787;29;20592;-77
2023/04/25 00:04:21;;;;;;;9.67;3.60;;;;;;;;;;4960809;28;20208;-77
2023/04/25 00:06:47;;;;;;;10.17;3.60;;;;;;;;;;4951868;28;20187;-77
2023/04/25 00:09:12;;;;;;;12.40;3.97;;;;;;;;;;4938520;28;20272;-77
2023/04/25 00:11:37;;;;;;;9.53;3.10;;;;;;;;;;4964992;28;21438;-77
2023/04/25 00:14:03;;;;;;;13.67;3.63;;;;;;;;;;4939247;29;20217;-77
2023/04/25 00:16:30;;;;;;;9.10;3.70;;;;;;;;;;4957135;28;20181;-77
2023/04/25 00:18:56;;;;;;;16.53;3.70;;;;;;;;;;4948263;29;20213;-77
2023/04/25 00:21:24;;;;;;;16.33;4.10;;;;;;;;;;4961348;28;20208;-77
2023/04/25 00:23:49;;;;;;;10.43;3.70;;;;;;;;;;4951555;28;20301;-77
2023/04/25 00:26:14;;;;;;;18.13;3.43;;;;;;;;;;4961161;28;20217;-77
2023/04/25 00:28:40;;;;;;;13.03;3.90;;;;;;;;;;4961550;28;20327;-77
2023/04/25 00:31:05;;;;;;;15.10;2.70;;;;;;;;;;4947406;28;20242;-77
2023/04/25 00:33:30;;;;;;;8.07;3.17;;;;;;;;;;4953560;28;20189;-77
2023/04/25 00:35:55;;;;;;;11.80;3.07;;;;;;;;;;4969072;28;20180;-76
2023/04/25 00:38:21;;;;;;;7.30;2.97;;;;;;;;;;4963423;28;20220;-77
2023/04/25 00:40:46;;;;;;;10.80;3.40;;;;;;;;;;4955353;28;20204;-77
2023/04/25 00:43:11;;;;;;;10.40;3.80;;;;;;;;;;4940152;29;20558;-76
2023/04/25 00:45:38;;;;;;;9.30;3.40;;;;;;;;;;4963932;28;20672;-77
2023/04/25 00:48:04;;;;;;;9.60;3.50;;;;;;;;;;4960167;28;20233;-77
2023/04/25 00:50:29;;;;;;;9.47;3.90;;;;;;;;;;4945044;28;20188;-77
2023/04/25 00:52:55;;;;;;;16.47;3.50;;;;;;;;;;4937939;29;20181;-76
2023/04/25 00:55:20;;;;;;;11.90;3.30;;;;;;;;;;4939941;28;20301;-77
2023/04/25 00:57:46;;;;;;;10.67;3.57;;;;;;;;;;4960682;28;20201;-77
2023/04/25 01:00:14;;;;;;;14.00;4.10;;;;;;;;;;4959706;28;20228;-77
2023/04/25 01:02:39;;;;;;;15.07;2.97;;;;;;;;;;4957483;28;20169;-76
2023/04/25 01:05:04;;;;;;;9.90;3.97;;;;;;;;;;4963778;28;20565;-77
2023/04/25 01:07:30;;;;;;;7.97;3.63;;;;;;;;;;4938690;28;20197;-77
2023/04/25 01:09:55;;;;;;;13.53;4.30;;;;;;;;;;4960503;28;20184;-77
2023/04/25 01:12:20;;;;;;;12.50;3.70;;;;;;;;;;4966138;28;20184;-77
2023/04/25 01:14:46;;;;;;;20.00;4.00;;;;;;;;;;4966885;28;20553;-77
2023/04/25 01:17:11;;;;;;;14.23;4.73;;;;;;;;;;4955710;28;20220;-75
2023/04/25 01:19:36;;;;;;;7.50;3.30;;;;;;;;;;4954727;28;20291;-75
2023/04/25 01:22:01;;;;;;;13.63;4.10;;;;;;;;;;4962337;28;20184;-76
2023/04/25 01:24:27;;;;;;;12.37;3.53;;;;;;;;;;4956620;28;20192;-76
2023/04/25 01:26:53;;;;;;;15.80;4.37;;;;;;;;;;4956188;28;20524;-76
2023/04/25 01:29:19;;;;;;;9.10;3.70;;;;;;;;;;4941981;28;20202;-76
2023/04/25 01:31:45;;;;;;;15.27;3.90;;;;;;;;;;4956210;28;20181;-76
2023/04/25 01:34:11;;;;;;;10.77;3.80;;;;;;;;;;4937598;29;20235;-76
2023/04/25 01:36:36;;;;;;;11.97;3.70;;;;;;;;;;4962042;28;20184;-76
2023/04/25 01:39:01;;;;;;;11.43;4.00;;;;;;;;;;4966897;28;20697;-76
2023/04/25 01:41:27;;;;;;;9.93;4.33;;;;;;;;;;4958709;28;20408;-76
2023/04/25 01:43:52;;;;;;;9.97;3.33;;;;;;;;;;4955335;28;20267;-76
2023/04/25 01:46:17;;;;;;;6.97;2.80;;;;;;;;;;4961156;28;20666;-76
2023/04/25 01:48:42;;;;;;;8.93;3.30;;;;;;;;;;4937608;29;20197;-76
2023/04/25 01:51:08;;;;;;;11.60;3.87;;;;;;;;;;4955858;28;20181;-76
2023/04/25 01:53:33;;;;;;;15.47;3.30;;;;;;;;;;4961611;28;20451;-77
2023/04/25 01:55:58;;;;;;;8.80;3.23;;;;;;;;;;4943196;29;20557;-77
2023/04/25 01:58:23;;;;;;;8.63;3.30;;;;;;;;;;4965193;28;20634;-77
2023/04/25 02:00:49;;;;;;;11.43;3.77;;;;;;;;;;4950916;28;20226;-77
2023/04/25 02:03:14;;;;;;;11.73;3.60;;;;;;;;;;4955521;28;20185;-77
2023/04/25 02:05:40;;;;;;;12.40;4.00;;;;;;;;;;4956581;28;20216;-76
2023/04/25 02:08:06;;;;;;;12.87;4.60;;;;;;;;;;4948622;28;20201;-76
2023/04/25 02:10:31;;;;;;;8.83;3.30;;;;;;;;;;4960258;28;20559;-76
2023/04/25 02:12:57;;;;;;;14.93;3.57;;;;;;;;;;4938771;29;20194;-77
2023/04/25 02:15:22;;;;;;;14.20;4.17;;;;;;;;;;4962681;28;20193;-77
2023/04/25 02:17:47;;;;;;;12.60;4.00;;;;;;;;;;4941045;28;20217;-77
2023/04/25 02:20:12;;;;;;;7.93;3.20;;;;;;;;;;4941444;28;20212;-77
2023/04/25 02:22:37;;;;;;;9.57;4.67;;;;;;;;;;4955978;28;20176;-76
2023/04/25 02:25:04;;;;;;;8.13;3.40;;;;;;;;;;4956767;28;20531;-77
2023/04/25 02:27:29;;;;;;;8.50;3.57;;;;;;;;;;4947338;29;20200;-77
2023/04/25 02:29:55;;;;;;;8.67;3.17;;;;;;;;;;4937520;29;20188;-76
2023/04/25 02:32:20;;;;;;;7.63;3.20;;;;;;;;;;4955152;28;20606;-77
2023/04/25 02:34:45;;;;;;;8.13;3.47;;;;;;;;;;4951543;28;20184;-76
2023/04/25 02:37:10;;;;;;;7.43;3.20;;;;;;;;;;4952581;28;20209;-77
2023/04/25 02:39:36;;;;;;;17.43;4.43;;;;;;;;;;4952188;28;20236;-76
2023/04/25 02:42:01;;;;;;;5.63;2.63;;;;;;;;;;4946866;28;20197;-76
2023/04/25 02:44:26;;;;;;;10.57;3.10;;;;;;;;;;4943354;28;20227;-76
2023/04/25 02:46:51;;;;;;;7.50;3.30;;;;;;;;;;4959515;28;20215;-76
2023/04/25 02:49:16;;;;;;;6.73;3.23;;;;;;;;;;4955612;28;20269;-77
2023/04/25 02:51:42;;;;;;;11.10;3.33;;;;;;;;;;4952205;28;20555;-77
2023/04/25 02:54:07;;;;;;;11.27;2.93;;;;;;;;;;4952779;28;20185;-77
2023/04/25 02:56:32;;;;;;;8.73;3.73;;;;;;;;;;4937343;28;20299;-76
2023/04/25 02:58:57;;;;;;;10.27;3.33;;;;;;;;;;4961919;28;20205;-77
2023/04/25 03:01:22;;;;;;;10.37;3.63;;;;;;;;;;4941219;28;20177;-76
2023/04/25 03:03:48;;;;;;;10.77;3.53;;;;;;;;;;4947566;28;20312;-77
2023/04/25 03:06:13;;;;;;;9.50;4.03;;;;;;;;;;4952657;28;20687;-77
2023/04/25 03:08:38;;;;;;;9.90;2.83;;;;;;;;;;4945011;28;20243;-76
2023/04/25 03:11:03;;;;;;;12.00;3.47;;;;;;;;;;4945353;29;20177;-76
2023/04/25 03:13:29;;;;;;;6.90;2.73;;;;;;;;;;4937834;29;20536;-77
2023/04/25 03:15:55;;;;;;;9.00;3.10;;;;;;;;;;4954760;29;20200;-76
2023/04/25 03:18:20;;;;;;;7.43;3.27;;;;;;;;;;4937531;29;20279;-77
2023/04/25 03:20:46;;;;;;;10.63;2.67;;;;;;;;;;4952360;28;20635;-76
2023/04/25 03:23:11;;;;;;;7.27;2.83;;;;;;;;;;4954346;28;20726;-77
2023/04/25 03:25:36;;;;;;;11.30;3.20;;;;;;;;;;4949771;28;20272;-77
2023/04/25 03:28:02;;;;;;;11.37;2.87;;;;;;;;;;4954750;28;20288;-77
2023/04/25 03:30:27;;;;;;;7.40;3.00;;;;;;;;;;4939864;29;20180;-77
2023/04/25 03:32:52;;;;;;;13.43;4.40;;;;;;;;;;4954857;28;20255;-77
2023/04/25 03:35:17;;;;;;;16.30;3.40;;;;;;;;;;4960295;28;20196;-77
2023/04/25 03:37:45;;;;;;;9.17;2.63;;;;;;;;;;4957693;28;20621;-77
2023/04/25 03:40:11;;;;;;;6.37;2.80;;;;;;;;;;4951857;28;20200;-77
2023/04/25 03:42:36;;;;;;;8.13;2.80;;;;;;;;;;4954176;28;20232;-77
2023/04/25 03:45:01;;;;;;;5.30;2.90;;;;;;;;;;4959124;28;20180;-77
2023/04/25 03:47:27;;;;;;;11.33;2.83;;;;;;;;;;4961198;28;20557;-77
2023/04/25 03:49:52;;;;;;;9.83;2.93;;;;;;;;;;4962047;28;20201;-77
2023/04/25 03:52:17;;;;;;;6.60;1.83;;;;;;;;;;4956158;28;20200;-77
2023/04/25 03:54:43;;;;;;;9.80;2.83;;;;;;;;;;4950082;28;20197;-76
2023/04/25 03:57:08;;;;;;;8.73;2.63;;;;;;;;;;4944226;28;20215;-75
2023/04/25 03:59:33;;;;;;;9.70;2.97;;;;;;;;;;4955206;28;20216;-76
2023/04/25 04:01:58;;;;;;;9.07;3.33;;;;;;;;;;4949417;28;20183;-77
2023/04/25 04:04:23;;;;;;;7.50;2.77;;;;;;;;;;4940209;28;20185;-77
2023/04/25 04:06:49;;;;;;;5.53;1.90;;;;;;;;;;4945600;28;20180;-77
2023/04/25 04:09:15;;;;;;;6.17;3.20;;;;;;;;;;4934395;29;20185;-77
2023/04/25 04:11:40;;;;;;;4.07;2.20;;;;;;;;;;4939180;28;20239;-77
2023/04/25 04:14:06;;;;;;;7.20;2.83;;;;;;;;;;4960923;28;20231;-77
2023/04/25 04:16:31;;;;;;;5.70;2.70;;;;;;;;;;4934367;28;20213;-77
2023/04/25 04:18:56;;;;;;;6.63;2.80;;;;;;;;;;4960398;28;20192;-77
2023/04/25 04:21:23;;;;;;;7.53;2.27;;;;;;;;;;4941289;29;20303;-77
2023/04/25 04:23:48;;;;;;;7.17;2.10;;;;;;;;;;4950486;28;20204;-77
2023/04/25 04:26:15;;;;;;;5.07;2.60;;;;;;;;;;4955649;28;20173;-77
2023/04/25 04:28:40;;;;;;;6.20;2.47;;;;;;;;;;4927412;28;20260;-77
2023/04/25 04:31:05;;;;;;;7.57;2.53;;;;;;;;;;4944100;28;20616;-76
2023/04/25 04:33:31;;;;;;;5.67;2.67;;;;;;;;;;4961850;28;20270;-76
2023/04/25 04:35:56;;;;;;;3.37;2.10;;;;;;;;;;4938278;29;20207;-76
2023/04/25 04:38:21;;;;;;;7.37;2.27;;;;;;;;;;4935259;29;20261;-77
2023/04/25 04:40:47;;;;;;;4.03;1.83;;;;;;;;;;4964256;28;20199;-77
2023/04/25 04:43:14;;;;;;;6.93;2.43;;;;;;;;;;4929319;29;20177;-77
2023/04/25 04:45:40;;;;;;;6.70;2.07;;;;;;;;;;4938268;28;20347;-77
2023/04/25 04:48:05;;;;;;;5.63;2.47;;;;;;;;;;4965559;28;20670;-76
2023/04/25 04:50:32;;;;;;;13.30;1.93;;;;;;;;;;4955171;28;20238;-76
2023/04/25 04:52:57;;;;;;;6.80;2.07;;;;;;;;;;4958149;28;20457;-76
2023/04/25 04:55:23;;;;;;;3.33;1.90;;;;;;;;;;4965021;28;20177;-77
2023/04/25 04:57:48;;;;;;;5.00;1.60;;;;;;;;;;4961842;28;20192;-77
2023/04/25 05:00:15;;;;;;;6.97;1.87;;;;;;;;;;4960745;28;20204;-77
2023/04/25 05:02:40;;;;;;;8.63;2.10;;;;;;;;;;4950820;28;20184;-77
2023/04/25 05:05:06;;;;;;;9.47;1.57;;;;;;;;;;4958427;28;20178;-76
2023/04/25 05:07:31;;;;;;;11.37;2.63;;;;;;;;;;4935107;28;20570;-76
2023/04/25 05:09:56;;;;;;;7.47;2.00;;;;;;;;;;4937936;29;20185;-77
2023/04/25 05:12:21;;;;;;;6.13;1.90;;;;;;;;;;4963606;28;20267;-77
2023/04/25 05:14:46;;;;;;;4.93;1.37;;;;;;;;;;4963958;28;20187;-76
2023/04/25 05:17:12;;;;;;;5.23;1.30;;;;;;;;;;4937296;29;20208;-77
2023/04/25 05:19:37;;;;;;;7.37;1.70;;;;;;;;;;4932348;28;20201;-77
2023/04/25 05:22:03;;;;;;;8.70;1.90;;;;;;;;;;4938838;29;20184;-77
2023/04/25 05:24:28;;;;;;;4.37;1.87;;;;;;;;;;4953505;28;20557;-77
2023/04/25 05:26:53;;;;;;;3.50;1.50;;;;;;;;;;4953835;28;20639;-77
2023/04/25 05:29:18;;;;;;;2.77;1.43;;;;;;;;;;4944426;28;20182;-76
2023/04/25 05:31:44;;;;;;;2.43;1.50;;;;;;;;;;4954679;28;20674;-77
2023/04/25 05:34:09;;;;;;;5.03;1.37;;;;;;;;;;4950408;28;20180;-76
2023/04/25 05:36:34;;;;;;;3.10;2.70;;;;;;;;;;4953210;28;20648;-77
2023/04/25 05:39:00;;;;;;;4.80;1.60;;;;;;;;;;4960843;28;20203;-77
2023/04/25 05:41:25;;;;;;;3.17;1.60;;;;;;;;;;4957314;28;20213;-76
2023/04/25 05:43:50;;;;;;;4.87;1.33;;;;;;;;;;4964133;28;20180;-76
2023/04/25 05:46:16;;;;;;;4.70;1.87;;;;;;;;;;4956826;28;21444;-77
2023/04/25 05:48:42;;;;;;;2.67;1.33;;;;;;;;;;4939220;28;20699;-77
2023/04/25 05:51:08;;;;;;;5.53;1.27;;;;;;;;;;4932902;29;20177;-77
2023/04/25 05:53:33;;;;;;;4.60;1.40;;;;;;;;;;4947714;28;20181;-76
2023/04/25 05:55:58;;;;;;;4.37;1.57;;;;;;;;;;4962282;28;20173;-76
2023/04/25 05:58:23;;;;;;;2.97;1.20;;;;;;;;;;4939828;29;20204;-76
2023/04/25 06:00:48;;;;;;;4.93;1.57;;;;;;;;;;4952903;28;20730;-76
2023/04/25 06:03:14;;;;;;;5.70;1.90;;;;;;;;;;4953599;28;20185;-76
2023/04/25 06:05:41;;;;;;;2.40;1.30;;;;;;;;;;4962417;28;20173;-77
2023/04/25 06:08:06;;;;;;;2.10;1.33;;;;;;;;;;4941470;28;20196;-76
2023/04/25 06:10:31;;;;;;;2.63;0.97;;;;;;;;;;4957783;28;20195;-77
2023/04/25 06:12:56;;;;;;;3.53;1.47;;;;;;;;;;4958904;28;20189;-76
2023/04/25 06:15:21;;;;;;;2.90;1.20;;;;;;;;;;4955222;28;20228;-77
2023/04/25 06:17:47;;;;;;;5.43;1.53;;;;;;;;;;4956749;28;20304;-77
2023/04/25 06:20:12;;;;;;;5.17;1.70;;;;;;;;;;4957695;28;20196;-77
2023/04/25 06:22:37;;;;;;;2.50;1.63;;;;;;;;;;4959738;28;20222;-77
2023/04/25 06:25:04;;;;;;;4.70;1.33;;;;;;;;;;4966590;28;20183;-77
2023/04/25 06:27:29;;;;;;;3.47;1.07;;;;;;;;;;4962038;28;20714;-77
2023/04/25 06:29:54;;;;;;;3.60;1.60;;;;;;;;;;4954641;28;20193;-77
2023/04/25 06:32:19;;;;;;;6.00;2.03;;;;;;;;;;4938254;29;20191;-77
2023/04/25 06:34:45;;;;;;;11.93;1.37;;;;;;;;;;4963748;28;20650;-76
2023/04/25 06:37:10;;;;;;;4.97;1.53;;;;;;;;;;4945478;28;20252;-76
2023/04/25 06:39:35;;;;;;;2.10;1.20;;;;;;;;;;4944360;28;20215;-77
2023/04/25 06:42:01;;;;;;;2.37;1.03;;;;;;;;;;4940661;28;20181;-77
2023/04/25 06:44:26;;;;;;;5.93;1.50;;;;;;;;;;4959725;28;20189;-77
2023/04/25 06:46:51;;;;;;;3.43;1.30;;;;;;;;;;4951667;28;20346;-77
2023/04/25 06:49:16;;;;;;;3.67;2.00;;;;;;;;;;4956854;28;20225;-77
2023/04/25 06:51:41;;;;;;;5.13;1.77;;;;;;;;;;4959909;28;20589;-77
2023/04/25 06:54:07;;;;;;;6.73;1.90;;;;;;;;;;4946776;28;20191;-77
2023/04/25 06:56:32;;;;;;;1.90;1.60;;;;;;;;;;4941306;29;20659;-76
2023/04/25 06:58:57;;;;;;;4.33;1.33;;;;;;;;;;4943112;28;20208;-77
2023/04/25 07:01:22;;;;;;;5.87;1.60;;;;;;;;;;4944009;28;21034;-76
2023/04/25 07:03:47;;;;;;;4.70;1.23;;;;;;;;;;4928989;28;20186;-77
2023/04/25 07:06:12;;;;;;;6.23;1.70;;;;;;;;;;4936499;29;20267;-78
2023/04/25 07:08:38;;;;;;;3.37;1.07;;;;;;;;;;4955774;28;20192;-77
2023/04/25 07:11:03;;;;;;;10.50;2.93;;;;;;;;;;4942249;28;20184;-76
2023/04/25 07:13:28;;;;;;;8.50;1.53;;;;;;;;;;4954415;29;20205;-76
2023/04/25 07:15:53;;;;;;;6.17;1.30;;;;;;;;;;4961042;28;20224;-75
2023/04/25 07:18:18;;;;;;;4.63;1.97;;;;;;;;;;4933994;29;20221;-77
2023/04/25 07:20:44;;;;;;;11.70;1.97;;;;;;;;;;4960300;28;20201;-78
2023/04/25 07:23:09;;;;;;;5.90;1.83;;;;;;;;;;4959655;28;20559;-78
2023/04/25 07:25:35;;;;;;;5.07;1.40;;;;;;;;;;4956831;28;20645;-78
2023/04/25 07:28:00;;;;;;;6.57;1.53;;;;;;;;;;4941640;28;20283;-78
2023/04/25 07:30:25;;;;;;;3.03;1.53;;;;;;;;;;4967777;28;20606;-78
2023/04/25 07:32:50;;;;;;;4.50;1.50;;;;;;;;;;4944788;29;20189;-78
2023/04/25 07:35:16;;;;;;;5.03;1.50;;;;;;;;;;4953423;29;20607;-79
2023/04/25 07:37:41;;;;;;;9.30;1.70;;;;;;;;;;4952470;28;20201;-79
2023/04/25 07:40:07;;;;;;;5.87;1.67;;;;;;;;;;4962675;28;20234;-80
2023/04/25 07:42:33;;;;;;;6.77;1.40;;;;;;;;;;4954408;28;20188;-78
2023/04/25 07:44:58;;;;;;;8.00;1.40;;;;;;;;;;4954355;28;20593;-78
2023/04/25 07:47:23;;;;;;;7.30;1.43;;;;;;;;;;4942484;28;20203;-79
2023/04/25 07:49:48;;;;;;;1.93;1.30;;;;;;;;;;4956978;28;20752;-79
2023/04/25 07:52:14;;;;;;;6.53;1.47;;;;;;;;;;4937501;29;20670;-79
2023/04/25 07:54:39;;;;;;;7.17;1.47;;;;;;;;;;4957984;28;20714;-78
2023/04/25 07:57:06;;;;;;;3.37;1.33;;;;;;;;;;4949308;29;20213;-78
2023/04/25 07:59:31;;;;;;;7.50;1.20;;;;;;;;;;4953626;28;20193;-78
2023/04/25 08:01:57;;;;;;;3.37;0.67;;;;;;;;;;4958054;28;20609;-78
2023/04/25 08:04:22;;;;;;;15.30;1.03;;;;;;;;;;4950529;29;20181;-79
2023/04/25 08:06:48;;;;;;;5.70;0.80;;;;;;;;;;4948023;28;20227;-78
2023/04/25 08:09:13;;;;;;;1.03;0.70;;;;;;;;;;4956237;28;20656;-78
2023/04/25 08:11:38;;;;;;;1.93;0.60;;;;;;;;;;4977439;28;20177;-78
2023/04/25 08:14:04;;;;;;;2.10;0.60;;;;;;;;;;4979638;28;20184;-78
2023/04/25 08:16:29;;;;;;;2.00;0.57;;;;;;;;;;4928045;29;20227;-78
2023/04/25 08:18:54;;;;;;;1.13;0.67;;;;;;;;;;4952877;29;20208;-78
2023/04/25 08:21:20;;;;;;;1.07;0.80;;;;;;;;;;4957251;28;20208;-78
2023/04/25 08:23:45;;;;;;;2.70;0.60;;;;;;;;;;4938836;28;20192;-79
2023/04/25 08:26:10;;;;;;;8.83;1.60;;;;;;;;;;4972791;28;20182;-79
2023/04/25 08:28:36;;;;;;;5.87;1.00;;;;;;;;;;4966479;28;20201;-78
2023/04/25 08:31:01;;;;;;;4.93;1.17;;;;;;;;;;4927495;28;20191;-79
2023/04/25 08:33:26;;;;;;;3.33;0.80;;;;;;;;;;4964618;28;20173;-77
2023/04/25 08:35:51;;;;;;;5.07;1.10;;;;;;;;;;4961928;28;20185;-77
2023/04/25 08:38:17;;;;;;;3.90;0.60;;;;;;;;;;4956514;29;20207;-77
2023/04/25 08:40:43;;;;;;;4.10;0.60;;;;;;;;;;4944888;28;20295;-77
2023/04/25 08:43:11;;;;;;;7.25;1.75;;;;;;;;;;4956244;28;20656;-76
2023/04/25 08:45:38;;;;;;;7.68;0.90;;;;;;;;;;4945046;28;20352;-76
2023/04/25 08:48:04;;;;;;;2.25;0.63;;;;;;;;;;4969001;28;20239;-77
2023/04/25 08:50:30;;;;;;;4.45;0.93;;;;;;;;;;4950459;28;20651;-76
2023/04/25 08:53:01;;;;;;;4.45;1.60;;;;;;;;;;4959950;28;20651;-77
2023/04/25 08:55:27;;;;;;;4.75;0.98;;;;;;;;;;4957250;29;20667;-77
2023/04/25 08:57:53;;;;;;;3.85;0.70;;;;;;;;;;4956731;29;20205;-77
2023/04/25 09:00:19;;;;;;;3.90;1.20;;;;;;;;;;4963546;28;20223;-78
2023/04/25 09:02:44;;;;;;;1.80;1.02;;;;;;;;;;4968685;28;20188;-78
2023/04/25 09:05:12;;;;;;;2.10;1.10;;;;;;;;;;4947138;28;20168;-78
2023/04/25 09:07:37;;;;;;;3.80;1.02;;;;;;;;;;4954179;28;20197;-77
2023/04/25 09:10:03;;;;;;;3.58;1.23;;;;;;;;;;4971611;28;20187;-78
2023/04/25 09:12:29;;;;;;;4.47;0.95;;;;;;;;;;4969449;28;20181;-78
2023/04/25 09:15:07;;;;;;;4.28;0.60;;;;;;;;;;4941882;29;20732;-79
2023/04/25 09:17:33;;;;;;;3.22;0.80;;;;;;;;;;4974573;23;20354;-67
2023/04/25 09:20:11;;;;;;;4.13;1.20;;;;;;;;;;4979036;28;20310;-67
2023/04/25 09:22:37;;;;;;;3.33;1.05;;;;;;;;;;4973559;28;20191;-68
2023/04/25 09:25:12;;;;;;;6.63;1.00;;;;;;;;;;4946669;28;20176;-68
2023/04/25 09:27:49;;;;;;;2.45;0.80;;;;;;;;;;4971409;28;20239;-68
2023/04/25 09:30:15;;;;;;;2.42;0.60;;;;;;;;;;4954812;29;20180;-68
2023/04/25 09:32:42;;;;;;;2.33;0.85;;;;;;;;;;4953944;28;20656;-68
2023/04/25 09:35:08;;;;;;;7.03;1.25;;;;;;;;;;4947590;28;20193;-68
2023/04/25 09:37:33;;;;;;;3.15;0.90;;;;;;;;;;4952204;28;20201;-67
2023/04/25 09:40:00;;;;;;;2.85;0.93;;;;;;;;;;4953976;29;20675;-67
2023/04/25 09:42:27;;;;;;;3.35;1.42;;;;;;;;;;4936073;29;20188;-67
2023/04/25 09:44:53;;;;;;;4.70;0.87;;;;;;;;;;4954501;29;20620;-67
2023/04/25 09:47:21;;;;;;;2.93;0.80;;;;;;;;;;4956230;28;20204;-67
2023/04/25 09:49:46;;;;;;;3.53;0.93;;;;;;;;;;4959942;28;20165;-68
2023/04/25 09:52:15;;;;;;;6.03;0.60;;;;;;;;;;4954902;29;20180;-67
2023/04/25 09:54:41;;;;;;;2.77;1.03;;;;;;;;;;4934022;29;20256;-67
2023/04/25 09:57:10;;;;;;;3.33;1.20;;;;;;;;;;4956296;28;20177;-67
2023/04/25 09:59:38;;;;;;;1.17;0.60;;;;;;;;;;4951654;28;20245;-68
2023/04/25 10:02:03;;;;;;;2.07;0.60;;;;;;;;;;4964583;28;20185;-67
2023/04/25 10:04:30;;;;;;;1.70;0.40;;;;;;;;;;4957323;28;20192;-67
2023/04/25 10:06:56;;;;;;;1.07;0.57;;;;;;;;;;4955484;28;20184;-67
2023/04/25 10:09:22;;;;;;;1.13;0.80;;;;;;;;;;4955867;28;20192;-67
2023/04/25 10:11:48;;;;;;;1.27;0.40;;;;;;;;;;4951369;28;20188;-68
2023/04/25 10:14:13;;;;;;;1.57;0.70;;;;;;;;;;4954328;28;20605;-68
2023/04/25 10:16:40;;;;;;;2.00;0.50;;;;;;;;;;4957261;28;20264;-68
2023/04/25 10:19:05;;;;;;;0.57;0.40;;;;;;;;;;4957303;28;20212;-67
2023/04/25 10:21:31;;;;;;;3.07;0.50;;;;;;;;;;4952955;29;20312;-68
2023/04/25 10:23:57;;;;;;;2.00;0.50;;;;;;;;;;4960753;28;20172;-68
2023/04/25 10:26:22;;;;;;;6.60;1.40;;;;;;;;;;4937667;28;20595;-68
2023/04/25 10:28:58;;;;;;;3.47;0.90;;;;;;;;;;4958462;28;20279;-67
2023/04/25 10:31:23;;;;;;;2.00;0.63;;;;;;;;;;4950838;28;20228;-68
2023/04/25 10:33:49;;;;;;;2.43;0.73;;;;;;;;;;4961899;28;20263;-68
2023/04/25 10:36:18;;;;;;;5.85;0.88;;;;;;;;;;4956879;28;20177;-68
2023/04/25 10:38:44;;;;;;;2.50;0.80;;;;;;;;;;4958362;28;20216;-68
2023/04/25 10:41:10;;;;;;;3.72;0.82;;;;;;;;;;4960489;28;20192;-68
2023/04/25 10:43:39;;;;;;;5.10;1.00;;;;;;;;;;4954959;28;20713;-68
2023/04/25 10:46:35;;;;;;;2.13;0.88;;;;;;;;;;4960803;28;20180;-68
2023/04/25 10:49:01;;;;;;;2.05;0.98;;;;;;;;;;4934675;28;20217;-68
2023/04/25 10:51:28;;;;;;;4.00;1.30;;;;;;;;;;4965176;28;20669;-68
2023/04/25 10:53:59;;;;;;;3.65;1.50;;;;;;;;;;4959762;28;20192;-68
2023/04/25 10:56:25;;;;;;;4.18;0.90;;;;;;;;;;4963460;28;20219;-68
2023/04/25 10:58:51;;;;;;;3.10;1.08;;;;;;;;;;4960433;28;20220;-68
2023/04/25 11:01:20;;;;;;;3.40;0.90;;;;;;;;;;4959753;28;20694;-68
2023/04/25 11:03:47;;;;;;;2.95;1.17;;;;;;;;;;4963524;28;20224;-68
2023/04/25 11:06:19;;;;;;;3.63;1.25;;;;;;;;;;4961848;28;20250;-68
2023/04/25 11:08:50;;;;;;;2.38;0.70;;;;;;;;;;4959839;28;20193;-68
2023/04/25 11:11:16;;;;;;;6.45;0.70;;;;;;;;;;4957765;28;20173;-67
2023/04/25 11:13:41;;;;;;;1.90;0.80;;;;;;;;;;4962239;28;20191;-67
2023/04/25 11:16:07;;;;;;;8.27;1.13;;;;;;;;;;4964401;28;20235;-67
2023/04/25 11:18:34;;;;;;;1.98;0.57;;;;;;;;;;4943291;28;20221;-67
2023/04/25 11:20:59;;;;;;;2.15;0.63;;;;;;;;;;4952494;28;20738;-67
2023/04/25 11:23:24;;;;;;;1.95;0.50;;;;;;;;;;4954945;28;20181;-67
2023/04/25 11:25:50;;;;;;;1.80;0.60;;;;;;;;;;4948032;28;20181;-67
2023/04/25 11:28:20;;;;;;;2.13;0.60;;;;;;;;;;4958324;28;20193;-67
2023/04/25 11:30:48;;;;;;;1.90;0.50;;;;;;;;;;4953398;28;20401;-67
2023/04/25 11:33:14;;;;;;;1.93;0.57;;;;;;;;;;4954330;28;20193;-67
2023/04/25 11:35:40;;;;;;;3.03;0.97;;;;;;;;;;4951548;28;20196;-68
2023/04/25 11:38:05;;;;;;;2.33;0.70;;;;;;;;;;4963103;28;20223;-67
2023/04/25 11:40:31;;;;;;;2.13;0.80;;;;;;;;;;4957251;28;20586;-67
2023/04/25 11:42:59;;;;;;;1.57;0.40;;;;;;;;;;4961999;28;20565;-68
2023/04/25 11:45:25;;;;;;;4.87;0.80;;;;;;;;;;4957956;28;20223;-68
2023/04/25 11:47:50;;;;;;;2.65;0.68;;;;;;;;;;4965827;28;20259;-68
2023/04/25 11:50:15;;;;;;;6.47;1.00;;;;;;;;;;4961662;28;20560;-67
2023/04/25 11:52:42;;;;;;;2.72;0.85;;;;;;;;;;4962206;28;20191;-68
2023/04/25 11:55:17;;;;;;;1.60;0.77;;;;;;;;;;4965370;28;20192;-68
2023/04/25 11:57:43;;;;;;;2.05;1.45;;;;;;;;;;4944574;28;20291;-67
2023/04/25 12:00:08;;;;;;;1.08;0.98;;;;;;;;;;4958402;28;20254;-67
2023/04/25 12:02:37;;;;;;;1.67;0.60;;;;;;;;;;4969304;28;20177;-67
2023/04/25 12:05:06;;;;;;;6.32;1.13;;;;;;;;;;4971541;28;20676;-67
2023/04/25 12:07:31;;;;;;;3.65;1.00;;;;;;;;;;4967570;28;20196;-67
2023/04/25 12:09:56;;;;;;;3.97;0.98;;;;;;;;;;4944053;29;20796;-66
2023/04/25 12:12:26;;;;;;;3.15;0.95;;;;;;;;;;4959841;28;20707;-67
2023/04/25 12:14:51;;;;;;;2.95;0.90;;;;;;;;;;4960888;28;20622;-67
2023/04/25 12:17:17;;;;;;;3.53;1.00;;;;;;;;;;4964380;28;20253;-67
2023/04/25 12:19:44;;;;;;;6.45;1.52;;;;;;;;;;4961994;28;20204;-67
2023/04/25 12:22:23;;;;;;;7.13;1.40;;;;;;;;;;4941804;28;20181;-67
2023/04/25 12:24:48;;;;;;;2.95;0.80;;;;;;;;;;4964973;28;20219;-67
2023/04/25 12:27:16;;;;;;;4.63;1.00;;;;;;;;;;4957860;28;20196;-67
2023/04/25 12:29:50;;;;;;;3.25;1.13;;;;;;;;;;4963753;28;20184;-67
2023/04/25 12:32:15;;;;;;;3.97;1.00;;;;;;;;;;4959669;28;20179;-67
2023/04/25 12:34:41;;;;;;;3.33;1.00;;;;;;;;;;4959861;28;20192;-67
2023/04/25 12:37:06;;;;;;;4.35;0.93;;;;;;;;;;4963691;28;20264;-67
2023/04/25 12:39:31;;;;;;;3.90;1.50;;;;;;;;;;4972253;28;20227;-67
2023/04/25 12:41:56;;;;;;;2.75;0.80;;;;;;;;;;4966247;28;20181;-67
2023/04/25 12:44:22;;;;;;;2.95;1.00;;;;;;;;;;4954391;28;20665;-67
2023/04/25 12:46:47;;;;;;;3.35;0.90;;;;;;;;;;4961974;28;20185;-67
2023/04/25 12:49:13;;;;;;;1.85;0.77;;;;;;;;;;4959539;28;20302;-67
2023/04/25 12:51:38;;;;;;;4.53;0.85;;;;;;;;;;4964396;28;20169;-67
2023/04/25 12:54:05;;;;;;;3.13;1.00;;;;;;;;;;4959104;28;20178;-67
2023/04/25 12:56:31;;;;;;;3.35;0.68;;;;;;;;;;4955685;28;20176;-67
2023/04/25 12:58:56;;;;;;;5.15;1.65;;;;;;;;;;4965439;28;20271;-67
2023/04/25 13:01:22;;;;;;;5.20;0.82;;;;;;;;;;4962557;28;20693;-67
2023/04/25 13:03:47;;;;;;;5.93;1.10;;;;;;;;;;4961892;28;20188;-68
2023/04/25 13:06:13;;;;;;;6.30;1.00;;;;;;;;;;4965190;28;20184;-67
2023/04/25 13:08:38;;;;;;;4.47;1.13;;;;;;;;;;4957910;28;20197;-67
2023/04/25 13:11:04;;;;;;;3.83;1.00;;;;;;;;;;4959069;28;20177;-67
2023/04/25 13:13:31;;;;;;;3.05;1.08;;;;;;;;;;4963280;28;20199;-67
2023/04/25 13:15:56;;;;;;;1.08;0.82;;;;;;;;;;4943885;29;20174;-67
2023/04/25 13:18:26;;;;;;;5.93;1.08;;;;;;;;;;4949192;28;20769;-67
2023/04/25 13:20:51;;;;;;;7.20;1.35;;;;;;;;;;4951285;28;20196;-66
2023/04/25 13:23:16;;;;;;;1.95;0.85;;;;;;;;;;4950596;28;20440;-67
2023/04/25 13:25:41;;;;;;;6.60;0.90;;;;;;;;;;4961473;28;20539;-67
2023/04/25 13:28:06;;;;;;;2.60;0.80;;;;;;;;;;4962771;28;20316;-67
2023/04/25 13:30:32;;;;;;;3.38;0.70;;;;;;;;;;4962298;28;20173;-67
2023/04/25 13:33:02;;;;;;;3.17;0.82;;;;;;;;;;4964552;28;20232;-66
2023/04/25 13:35:27;;;;;;;4.13;0.68;;;;;;;;;;4947180;28;20199;-67
2023/04/25 13:37:53;;;;;;;3.50;1.27;;;;;;;;;;4946739;28;20192;-66
2023/04/25 13:40:18;;;;;;;1.83;0.90;;;;;;;;;;4965593;28;20197;-66
2023/04/25 13:42:45;;;;;;;1.85;0.77;;;;;;;;;;4967828;28;20263;-67
2023/04/25 13:45:10;;;;;;;2.22;0.60;;;;;;;;;;4945681;28;20406;-67
2023/04/25 13:47:35;;;;;;;2.95;0.88;;;;;;;;;;4962683;28;20291;-67
2023/04/25 13:50:02;;;;;;;3.03;1.38;;;;;;;;;;4967115;28;20197;-67
2023/04/25 13:52:28;;;;;;;4.82;0.75;;;;;;;;;;4970753;28;20180;-67
2023/04/25 13:54:53;;;;;;;2.65;1.13;;;;;;;;;;4962280;28;20177;-66
2023/04/25 13:57:18;;;;;;;3.53;0.93;;;;;;;;;;4970269;28;20197;-66
2023/04/25 13:59:44;;;;;;;3.63;1.52;;;;;;;;;;4960189;28;20204;-67
2023/04/25 14:02:09;;;;;;;4.25;1.10;;;;;;;;;;4970501;28;20176;-67
2023/04/25 14:04:34;;;;;;;1.80;0.90;;;;;;;;;;4964385;28;20180;-67
2023/04/25 14:06:59;;;;;;;2.88;0.90;;;;;;;;;;4969056;28;20172;-67
2023/04/25 14:09:27;;;;;;;2.67;0.65;;;;;;;;;;4963915;28;20177;-67
2023/04/25 14:11:52;;;;;;;5.22;1.20;;;;;;;;;;4960899;28;20236;-67
2023/04/25 14:14:17;;;;;;;4.28;0.90;;;;;;;;;;4961814;28;20639;-67
2023/04/25 14:16:43;;;;;;;3.25;1.05;;;;;;;;;;4957905;28;20678;-67
2023/04/25 14:19:08;;;;;;;2.80;1.10;;;;;;;;;;4954807;28;20202;-68
2023/04/25 14:21:33;;;;;;;1.30;1.00;;;;;;;;;;4957964;28;20209;-68
2023/04/25 14:23:58;;;;;;;3.22;1.42;;;;;;;;;;4950187;28;20211;-67
2023/04/25 14:26:24;;;;;;;4.43;1.00;;;;;;;;;;4958952;28;20185;-67
2023/04/25 14:28:50;;;;;;;4.38;0.90;;;;;;;;;;4960793;28;20563;-67
2023/04/25 14:31:16;;;;;;;1.33;0.70;;;;;;;;;;4959354;28;20203;-67
2023/04/25 14:33:42;;;;;;;4.13;1.20;;;;;;;;;;4962528;28;20682;-67